Time;durP1;ratioP1;P1;durP2;ratioP2;P2;SDS_P1;SDS_P2;PMS_P1;PMS_P2;Temp;Humidity;BMP_temperature;BMP_pressure;BME280_temperature;BME280_humidity;BME280_pressure;Samples;Min_cycle;Max_cycle;Signal;HPM_P1;HPM_P2
2022/01/18 00:02:02;;;;;;;15.93;8.52;;;6.20;80.20;;;;;;7376015;19;20159;-77
2022/01/18 00:04:31;;;;;;;10.88;7.25;;;6.10;80.60;;;;;;7377377;19;21266;-78
2022/01/18 00:07:01;;;;;;;12.60;7.88;;;6.00;81.10;;;;;;7378830;19;20144;-77
2022/01/18 00:09:30;;;;;;;8.85;6.25;;;6.10;80.90;;;;;;7382605;19;20127;-78
2022/01/18 00:12:14;;;;;;;10.93;6.75;;;6.10;80.90;;;;;;7378756;19;20160;-78
2022/01/18 00:14:55;;;;;;;8.85;6.22;;;6.20;80.90;;;;;;7381689;19;20165;-77
2022/01/18 00:17:41;;;;;;;13.20;6.45;;;6.20;80.40;;;;;;7378402;19;20136;-78
2022/01/18 00:20:18;;;;;;;17.20;7.40;;;6.10;81.10;;;;;;7380567;19;20160;-78
2022/01/18 00:22:48;;;;;;;8.35;6.00;;;6.00;81.50;;;;;;7383619;19;20172;-78
2022/01/18 00:25:19;;;;;;;10.57;6.72;;;6.00;81.30;;;;;;7377684;19;20142;-77
2022/01/18 00:28:08;;;;;;;12.00;6.35;;;6.10;81.60;;;;;;7379210;19;20167;-78
2022/01/18 00:30:59;;;;;;;13.63;7.03;;;6.20;80.40;;;;;;7377995;19;20132;-80
2022/01/18 00:33:48;;;;;;;11.20;6.88;;;6.10;81.00;;;;;;7379156;19;20140;-78
2022/01/18 00:36:27;;;;;;;12.32;6.65;;;6.20;81.60;;;;;;7371615;19;20258;-78
2022/01/18 00:38:58;;;;;;;13.68;7.38;;;6.30;80.90;;;;;;7369018;19;20136;-77
2022/01/18 00:41:29;;;;;;;11.93;7.93;;;6.20;80.40;;;;;;7376220;19;20144;-78
2022/01/18 00:43:58;;;;;;;11.30;7.13;;;6.30;80.00;;;;;;7377203;19;20680;-77
2022/01/18 00:46:28;;;;;;;13.25;7.25;;;6.20;80.80;;;;;;7373409;19;20147;-79
2022/01/18 00:49:02;;;;;;;10.45;6.88;;;6.20;81.20;;;;;;7378860;19;20148;-78
2022/01/18 00:51:35;;;;;;;12.18;6.90;;;6.10;81.70;;;;;;7376047;19;20166;-77
2022/01/18 00:54:06;;;;;;;9.48;6.28;;;6.10;82.10;;;;;;7372524;19;20510;-78
2022/01/18 00:56:39;;;;;;;12.68;7.50;;;6.00;82.60;;;;;;7373819;19;20150;-78
2022/01/18 00:59:09;;;;;;;10.00;6.55;;;5.90;83.20;;;;;;7374058;19;20539;-78
2022/01/18 01:01:39;;;;;;;13.85;8.43;;;5.90;83.40;;;;;;7366438;19;20136;-78
2022/01/18 01:04:12;;;;;;;11.18;7.18;;;5.90;83.20;;;;;;7370541;19;21249;-77
2022/01/18 01:06:41;;;;;;;14.98;7.32;;;6.00;83.10;;;;;;7370863;19;20135;-78
2022/01/18 01:09:11;;;;;;;10.68;6.95;;;5.90;84.00;;;;;;7375301;19;20503;-77
2022/01/18 01:11:41;;;;;;;13.60;7.93;;;6.00;83.60;;;;;;7368335;19;20144;-76
2022/01/18 01:14:17;;;;;;;13.07;8.15;;;6.00;83.50;;;;;;7370518;19;20595;-77
2022/01/18 01:32:09;;;;;;;14.95;7.90;;;6.00;83.60;;;;;;7375006;19;20901;-79
2022/01/18 01:42:25;;;;;;;13.18;7.88;;;6.40;82.30;;;;;;7373115;19;20748;-78
2022/01/18 01:44:56;;;;;;;14.40;8.25;;;6.40;82.00;;;;;;7375124;19;20144;-78
2022/01/18 01:47:34;;;;;;;14.13;8.48;;;6.40;82.00;;;;;;7368773;19;20678;-77
2022/01/18 01:50:06;;;;;;;15.40;9.02;;;6.40;81.90;;;;;;7370701;19;20147;-78
2022/01/18 01:52:38;;;;;;;13.82;8.38;;;6.40;81.80;;;;;;7369937;19;20147;-77
2022/01/18 01:55:08;;;;;;;18.88;8.30;;;6.40;81.70;;;;;;7375976;19;20236;-77
2022/01/18 01:57:38;;;;;;;16.33;8.55;;;6.40;81.90;;;;;;7366599;19;20144;-77
2022/01/18 02:00:12;;;;;;;15.23;9.50;;;6.40;81.70;;;;;;7369298;19;20235;-78
2022/01/18 02:02:44;;;;;;;16.02;9.20;;;6.40;81.50;;;;;;7374244;19;20128;-77
2022/01/18 02:05:14;;;;;;;14.63;9.80;;;6.40;81.40;;;;;;7374160;19;20127;-77
2022/01/18 02:07:46;;;;;;;16.30;9.50;;;6.40;81.20;;;;;;7372070;19;20131;-79
2022/01/18 02:10:15;;;;;;;15.13;9.73;;;6.50;81.80;;;;;;7365214;19;20127;-77
2022/01/18 02:12:45;;;;;;;17.50;10.30;;;6.30;82.00;;;;;;7372032;19;20174;-77
2022/01/18 02:15:19;;;;;;;19.27;10.45;;;6.30;82.70;;;;;;7365154;19;20593;-76
2022/01/18 02:23:16;;;;;;;17.80;9.90;;;6.20;82.40;;;;;;7371924;19;20146;-76
2022/01/18 02:25:46;;;;;;;15.18;9.75;;;6.20;82.50;;;;;;7370488;19;20140;-76
2022/01/18 02:28:16;;;;;;;19.10;10.68;;;6.10;83.00;;;;;;7372726;19;20136;-77
2022/01/18 02:30:46;;;;;;;17.67;9.63;;;6.20;82.90;;;;;;7370194;19;20173;-78
2022/01/18 02:33:17;;;;;;;15.15;9.10;;;6.30;82.90;;;;;;7370854;19;20255;-77
2022/01/18 02:35:51;;;;;;;17.52;10.25;;;6.20;82.60;;;;;;7372903;19;20135;-77
2022/01/18 02:38:24;;;;;;;17.88;9.18;;;6.30;83.00;;;;;;7371311;19;20147;-77
2022/01/18 02:40:54;;;;;;;19.25;9.52;;;6.30;82.20;;;;;;7368086;19;20142;-78
2022/01/18 02:46:07;;;;;;;16.65;9.77;;;6.40;80.80;;;;;;7411728;19;20187;-78
2022/01/18 02:48:40;;;;;;;18.50;10.00;;;6.50;81.00;;;;;;7412892;19;20128;-78
2022/01/18 02:51:12;;;;;;;18.70;9.55;;;6.50;80.80;;;;;;7410245;19;20130;-78
2022/01/18 02:53:55;;;;;;;15.77;9.23;;;6.50;80.80;;;;;;7405409;19;20127;-78
2022/01/18 02:56:25;;;;;;;18.92;10.68;;;6.50;80.80;;;;;;7408124;19;20147;-78
2022/01/18 02:59:02;;;;;;;19.52;11.52;;;6.50;81.00;;;;;;7401488;19;20219;-78
2022/01/18 03:04:14;;;;;;;22.98;11.32;;;6.40;81.00;;;;;;7421503;19;20135;-78
2022/01/18 03:06:46;;;;;;;17.90;10.32;;;6.40;80.80;;;;;;7419661;19;20379;-78
2022/01/18 03:09:16;;;;;;;21.83;10.18;;;6.40;80.80;;;;;;7421882;19;20168;-78
2022/01/18 03:11:46;;;;;;;16.67;10.52;;;6.40;81.40;;;;;;7423767;19;20128;-77
2022/01/18 03:14:15;;;;;;;21.65;10.73;;;6.30;81.60;;;;;;7423195;19;20135;-78
2022/01/18 03:16:45;;;;;;;20.27;11.63;;;6.20;81.80;;;;;;7422102;19;20140;-77
2022/01/18 03:19:14;;;;;;;17.52;10.90;;;6.20;82.30;;;;;;7410888;19;20462;-78
2022/01/18 03:21:50;;;;;;;21.88;11.38;;;6.20;83.40;;;;;;7389969;19;20124;-77
2022/01/18 03:24:43;;;;;;;18.65;10.60;;;6.10;83.30;;;;;;7390475;19;20159;-78
2022/01/18 03:29:54;;;;;;;18.40;11.65;;;6.10;82.60;;;;;;7400258;19;20730;-77
2022/01/18 03:32:24;;;;;;;18.50;10.70;;;6.10;82.40;;;;;;7398809;19;20120;-78
2022/01/18 03:34:53;;;;;;;16.23;9.40;;;6.20;82.50;;;;;;7396805;19;20136;-78
2022/01/18 03:37:25;;;;;;;21.45;10.05;;;6.30;82.20;;;;;;7391768;19;20140;-78
2022/01/18 03:39:55;;;;;;;19.15;10.63;;;6.30;81.90;;;;;;7386245;19;20530;-77
2022/01/18 03:42:42;;;;;;;20.30;11.20;;;6.30;81.70;;;;;;7381704;19;20210;-77
2022/01/18 03:45:13;;;;;;;18.98;10.35;;;6.30;82.00;;;;;;7385642;19;20135;-77
2022/01/18 03:47:44;;;;;;;17.30;10.32;;;6.30;82.20;;;;;;7381806;19;20140;-79
2022/01/18 03:50:16;;;;;;;18.80;10.98;;;6.30;82.40;;;;;;7387383;19;20143;-78
2022/01/18 03:52:49;;;;;;;23.00;12.40;;;6.20;82.10;;;;;;7384660;19;20139;-77
2022/01/18 03:55:21;;;;;;;18.35;10.43;;;6.30;82.20;;;;;;7383010;19;20143;-77
2022/01/18 03:57:51;;;;;;;20.23;11.98;;;6.30;82.30;;;;;;7380814;19;20131;-77
2022/01/18 04:00:27;;;;;;;19.30;10.80;;;6.30;81.60;;;;;;7368885;19;20234;-76
2022/01/18 04:02:58;;;;;;;22.90;12.30;;;6.20;81.30;;;;;;7374780;19;20492;-76
2022/01/18 04:05:28;;;;;;;20.27;10.90;;;6.20;82.00;;;;;;7379591;19;20132;-76
2022/01/18 04:08:02;;;;;;;19.50;11.30;;;6.20;82.50;;;;;;7379221;19;20140;-76
2022/01/18 04:10:32;;;;;;;21.15;11.95;;;6.30;82.00;;;;;;7379696;19;20983;-76
2022/01/18 04:13:01;;;;;;;18.92;11.10;;;6.30;81.60;;;;;;7377948;19;20152;-76
2022/01/18 04:15:32;;;;;;;20.65;11.50;;;6.20;81.80;;;;;;7376655;19;20247;-76
2022/01/18 04:18:16;;;;;;;25.27;12.57;;;6.20;82.10;;;;;;7378987;19;20603;-77
2022/01/18 04:28:59;;;;;;;20.52;11.85;;;6.20;81.60;;;;;;7379325;19;20736;-77
2022/01/18 04:31:34;;;;;;;22.90;11.48;;;6.10;82.00;;;;;;7376145;19;20144;-77
2022/01/18 04:34:06;;;;;;;21.58;13.05;;;6.10;82.00;;;;;;7382910;19;20595;-78
2022/01/18 04:36:41;;;;;;;22.30;11.63;;;6.10;82.50;;;;;;7377921;19;20146;-77
2022/01/18 04:39:14;;;;;;;21.25;12.15;;;6.30;82.00;;;;;;7378655;19;20139;-78
2022/01/18 04:41:45;;;;;;;23.83;13.02;;;6.50;81.60;;;;;;7376136;19;20143;-77
2022/01/18 04:49:41;;;;;;;21.40;11.60;;;6.40;80.50;;;;;;7379229;19;20142;-76
2022/01/18 04:52:13;;;;;;;26.20;13.88;;;6.50;80.40;;;;;;7378595;19;20154;-77
2022/01/18 04:54:58;;;;;;;20.83;13.35;;;6.40;80.40;;;;;;7376438;19;20140;-77
2022/01/18 05:00:13;;;;;;;22.13;13.82;;;6.50;80.30;;;;;;7367971;19;20163;-78
2022/01/18 05:02:43;;;;;;;25.13;12.38;;;6.50;80.00;;;;;;7370768;19;20148;-77
2022/01/18 05:05:22;;;;;;;19.90;11.57;;;6.40;80.40;;;;;;7374684;19;20645;-77
2022/01/18 05:07:52;;;;;;;23.20;13.05;;;6.40;80.30;;;;;;7371396;19;20144;-77
2022/01/18 05:10:28;;;;;;;21.63;11.35;;;6.30;80.70;;;;;;7374529;19;20150;-76
2022/01/18 05:13:00;;;;;;;24.58;13.02;;;6.40;80.60;;;;;;7368020;19;20131;-77
2022/01/18 05:15:42;;;;;;;22.20;13.45;;;6.40;80.40;;;;;;7373165;19;20143;-77
2022/01/18 05:18:59;;;;;;;25.52;12.95;;;6.40;80.40;;;;;;7374408;19;20158;-77
2022/01/18 05:21:24;;;;;;;22.73;12.75;;;6.40;80.50;;;;;;7372514;19;20147;-76
2022/01/18 05:23:54;;;;;;;19.45;11.93;;;6.30;81.10;;;;;;7369817;19;20144;-76
2022/01/18 05:26:28;;;;;;;21.38;13.38;;;6.30;81.10;;;;;;7367928;19;21109;-78
2022/01/18 05:29:01;;;;;;;26.35;13.10;;;6.40;80.90;;;;;;7372571;19;20150;-78
2022/01/18 05:31:30;;;;;;;23.15;14.20;;;6.50;80.30;;;;;;7372811;19;21280;-78
2022/01/18 05:34:00;;;;;;;24.73;14.10;;;6.50;79.70;;;;;;7367915;19;20693;-77
2022/01/18 05:36:32;;;;;;;24.15;14.27;;;6.40;79.40;;;;;;7371576;19;20729;-77
2022/01/18 05:39:09;;;;;;;19.45;12.63;;;6.40;79.80;;;;;;7375886;19;21261;-77
2022/01/18 05:41:42;;;;;;;29.85;14.02;;;6.40;80.00;;;;;;7378948;19;20132;-76
2022/01/18 05:44:15;;;;;;;23.75;12.60;;;6.40;79.80;;;;;;7378125;19;20846;-77
2022/01/18 05:46:45;;;;;;;18.67;11.77;;;6.40;79.60;;;;;;7375488;19;20160;-76
2022/01/18 05:49:15;;;;;;;20.67;13.55;;;6.50;80.40;;;;;;7375215;19;22205;-76
2022/01/18 05:51:45;;;;;;;25.67;13.50;;;6.30;80.10;;;;;;7374529;19;20941;-76
2022/01/18 05:54:15;;;;;;;23.05;13.70;;;6.30;80.20;;;;;;7374804;19;20515;-76
2022/01/18 05:56:48;;;;;;;21.67;13.35;;;6.30;80.40;;;;;;7375390;19;20143;-77
2022/01/18 05:59:23;;;;;;;25.00;13.50;;;6.40;80.60;;;;;;7369398;19;20610;-78
2022/01/18 06:02:01;;;;;;;25.83;14.00;;;6.50;79.80;;;;;;7373452;19;20154;-78
2022/01/18 06:07:14;;;;;;;23.10;14.00;;;6.30;80.00;;;;;;7369272;19;20168;-77
2022/01/18 06:09:47;;;;;;;25.02;13.48;;;6.40;79.90;;;;;;7376474;19;20613;-77
2022/01/18 06:12:20;;;;;;;22.15;13.15;;;6.30;79.70;;;;;;7374711;19;20579;-77
2022/01/18 06:14:50;;;;;;;24.00;14.15;;;6.30;80.40;;;;;;7379727;19;20835;-77
2022/01/18 06:17:20;;;;;;;27.67;13.93;;;6.20;80.50;;;;;;7368190;19;20144;-78
2022/01/18 06:19:52;;;;;;;27.45;14.57;;;6.30;80.30;;;;;;7369164;19;20146;-77
2022/01/18 06:22:24;;;;;;;34.65;16.88;;;6.30;80.30;;;;;;7375304;19;20136;-77
2022/01/18 06:24:56;;;;;;;31.30;13.65;;;6.30;80.00;;;;;;7375652;19;20139;-77
2022/01/18 06:27:29;;;;;;;22.60;12.80;;;6.30;79.70;;;;;;7386114;19;20142;-75
2022/01/18 06:29:58;;;;;;;30.02;15.70;;;6.60;80.00;;;;;;7415368;19;20156;-76
2022/01/18 06:32:28;;;;;;;32.20;15.57;;;6.30;79.70;;;;;;7411449;19;20139;-77
2022/01/18 06:34:58;;;;;;;27.73;13.48;;;6.30;79.80;;;;;;7413446;19;20131;-77
2022/01/18 06:37:28;;;;;;;24.25;12.65;;;6.20;79.60;;;;;;7410168;19;20135;-77
2022/01/18 06:40:00;;;;;;;29.35;14.45;;;6.10;79.70;;;;;;7409776;19;20136;-74
2022/01/18 06:42:33;;;;;;;23.38;13.50;;;6.10;80.10;;;;;;7410948;19;20131;-77
2022/01/18 06:45:02;;;;;;;26.60;13.68;;;6.10;80.10;;;;;;7413064;19;20147;-76
2022/01/18 06:47:32;;;;;;;32.95;13.73;;;6.00;80.80;;;;;;7402091;19;20152;-75
2022/01/18 06:50:05;;;;;;;26.85;13.23;;;6.00;80.60;;;;;;7409880;19;20131;-76
2022/01/18 06:52:37;;;;;;;27.25;14.93;;;6.10;80.90;;;;;;7414256;19;20186;-75
2022/01/18 06:55:09;;;;;;;26.75;12.80;;;6.10;80.90;;;;;;7409538;19;20142;-77
2022/01/18 06:57:41;;;;;;;33.40;14.80;;;6.10;80.70;;;;;;7412812;19;20190;-76
2022/01/18 07:00:12;;;;;;;26.45;13.80;;;6.00;80.90;;;;;;7411408;19;20164;-77
2022/01/18 07:02:42;;;;;;;29.25;14.75;;;5.90;81.40;;;;;;7418876;19;20151;-76
2022/01/18 07:05:14;;;;;;;27.60;15.30;;;5.90;81.40;;;;;;7420665;19;20161;-76
2022/01/18 07:07:47;;;;;;;29.08;15.77;;;6.00;81.30;;;;;;7413178;19;20155;-76
2022/01/18 07:10:18;;;;;;;28.30;15.00;;;6.00;80.90;;;;;;7404331;19;20177;-76
2022/01/18 07:12:56;;;;;;;23.67;13.23;;;6.20;81.10;;;;;;7398213;19;20142;-76
2022/01/18 07:15:28;;;;;;;30.60;16.50;;;6.10;81.00;;;;;;7412615;19;20138;-78
2022/01/18 07:18:00;;;;;;;23.02;13.10;;;6.10;80.70;;;;;;7405860;19;20167;-76
2022/01/18 07:20:30;;;;;;;27.65;14.23;;;6.20;80.60;;;;;;7403163;19;20471;-76
2022/01/18 07:23:02;;;;;;;23.33;13.60;;;6.20;80.20;;;;;;7403936;19;20143;-76
2022/01/18 07:25:36;;;;;;;27.35;15.95;;;6.20;80.10;;;;;;7403216;19;20714;-76
2022/01/18 07:28:08;;;;;;;25.73;13.20;;;6.10;80.30;;;;;;7402011;19;20244;-76
2022/01/18 07:30:38;;;;;;;26.45;14.07;;;6.10;80.00;;;;;;7403432;19;20150;-76
2022/01/18 07:33:09;;;;;;;29.50;14.20;;;6.10;80.40;;;;;;7401244;19;20490;-78
2022/01/18 07:35:39;;;;;;;26.05;13.35;;;6.10;80.70;;;;;;7399243;19;20143;-77
2022/01/18 07:38:15;;;;;;;23.42;13.15;;;6.20;80.80;;;;;;7401912;19;20176;-77
2022/01/18 07:40:46;;;;;;;23.30;12.93;;;6.20;79.90;;;;;;7399194;19;20154;-77
2022/01/18 07:43:22;;;;;;;23.98;13.20;;;6.10;80.30;;;;;;7400716;19;20140;-77
2022/01/18 07:45:53;;;;;;;30.05;14.25;;;6.30;80.60;;;;;;7401604;19;20150;-77
2022/01/18 07:48:25;;;;;;;24.13;12.95;;;6.30;79.70;;;;;;7390501;19;20142;-77
2022/01/18 07:50:57;;;;;;;32.92;15.43;;;6.40;79.60;;;;;;7392100;19;20147;-77
2022/01/18 07:53:27;;;;;;;26.48;15.80;;;6.50;79.10;;;;;;7393953;19;20454;-78
2022/01/18 07:55:56;;;;;;;28.88;14.82;;;6.50;78.80;;;;;;7388579;19;20158;-76
2022/01/18 07:58:32;;;;;;;30.05;16.23;;;6.20;79.30;;;;;;7384237;19;20190;-76
2022/01/18 08:01:04;;;;;;;24.70;13.90;;;6.20;80.00;;;;;;7381813;19;20146;-77
2022/01/18 08:03:34;;;;;;;27.85;15.93;;;6.30;79.70;;;;;;7383693;19;20131;-78
2022/01/18 08:06:06;;;;;;;27.83;14.32;;;6.40;79.20;;;;;;7383470;19;20489;-77
2022/01/18 08:08:39;;;;;;;30.80;15.73;;;6.60;79.00;;;;;;7384063;19;20136;-77
2022/01/18 08:11:12;;;;;;;24.95;13.80;;;6.50;78.90;;;;;;7384171;19;20151;-77
2022/01/18 08:13:48;;;;;;;28.65;16.10;;;6.60;78.70;;;;;;7384531;19;20666;-77
2022/01/18 08:16:46;;;;;;;28.88;14.13;;;6.90;78.50;;;;;;7381676;19;20154;-77
2022/01/18 08:19:16;;;;;;;28.90;14.70;;;6.60;78.10;;;;;;7380928;19;20153;-77
2022/01/18 08:21:46;;;;;;;26.10;14.65;;;6.60;78.30;;;;;;7383905;19;20154;-77
2022/01/18 08:24:18;;;;;;;25.42;15.27;;;6.60;78.40;;;;;;7384307;19;20142;-75
2022/01/18 08:26:49;;;;;;;25.30;13.70;;;6.70;78.60;;;;;;7378149;19;20146;-75
2022/01/18 08:29:24;;;;;;;28.45;14.18;;;6.80;77.50;;;;;;7374730;19;20147;-70
2022/01/18 08:31:53;;;;;;;23.25;13.88;;;6.90;77.50;;;;;;7377081;19;20147;-71
2022/01/18 08:34:23;;;;;;;21.75;12.13;;;6.90;76.20;;;;;;7376653;19;20191;-71
2022/01/18 08:36:53;;;;;;;23.73;14.13;;;7.00;75.80;;;;;;7371985;19;20139;-71
2022/01/18 08:39:22;;;;;;;28.85;13.90;;;7.10;75.10;;;;;;7372031;19;20352;-71
2022/01/18 08:41:53;;;;;;;24.33;11.55;;;7.30;74.80;;;;;;7372176;19;20493;-70
2022/01/18 08:44:25;;;;;;;25.02;13.13;;;7.40;73.90;;;;;;7380650;19;20158;-72
2022/01/18 08:46:56;;;;;;;20.42;12.20;;;7.30;73.70;;;;;;7383115;19;20169;-71
2022/01/18 08:49:31;;;;;;;22.98;12.07;;;7.50;73.40;;;;;;7377162;19;20210;-69
2022/01/18 08:52:00;;;;;;;25.20;13.50;;;7.40;73.30;;;;;;7379450;19;20151;-71
2022/01/18 08:54:30;;;;;;;26.23;13.55;;;7.40;73.20;;;;;;7379744;19;20131;-70
2022/01/18 08:57:02;;;;;;;22.83;13.07;;;7.60;73.40;;;;;;7374661;19;20158;-70
2022/01/18 08:59:37;;;;;;;29.60;16.73;;;7.40;72.90;;;;;;7370209;19;20268;-70
2022/01/18 09:02:07;;;;;;;23.65;12.52;;;7.30;73.00;;;;;;7359021;19;20671;-70
2022/01/18 09:04:39;;;;;;;26.65;15.25;;;7.30;73.60;;;;;;7376968;19;20147;-71
2022/01/18 09:07:11;;;;;;;22.35;13.98;;;7.40;73.60;;;;;;7375617;19;20170;-70
2022/01/18 09:09:45;;;;;;;25.67;12.52;;;7.20;74.00;;;;;;7377289;19;20139;-68
2022/01/18 09:12:17;;;;;;;24.63;13.18;;;7.50;73.10;;;;;;7377023;19;20632;-69
2022/01/18 09:14:50;;;;;;;21.73;12.60;;;7.30;72.90;;;;;;7372500;19;20160;-69
2022/01/18 09:17:20;;;;;;;25.77;12.55;;;7.40;73.00;;;;;;7369732;19;20147;-68
2022/01/18 09:19:50;;;;;;;20.77;12.88;;;7.40;72.40;;;;;;7376968;19;20170;-70
2022/01/18 09:22:22;;;;;;;22.50;12.32;;;7.40;73.00;;;;;;7376613;19;20612;-69
2022/01/18 09:24:52;;;;;;;20.10;11.70;;;7.70;72.10;;;;;;7374560;19;20151;-70
2022/01/18 09:27:21;;;;;;;22.15;12.77;;;8.60;70.80;;;;;;7378442;19;20147;-71
2022/01/18 09:29:56;;;;;;;19.20;12.27;;;9.70;65.80;;;;;;7377199;19;20195;-71
2022/01/18 09:32:28;;;;;;;22.03;11.80;;;10.30;61.60;;;;;;7375107;19;20938;-70
2022/01/18 09:35:01;;;;;;;23.60;12.03;;;11.00;59.20;;;;;;7377465;19;20408;-77
2022/01/18 09:37:33;;;;;;;24.97;13.03;;;11.40;58.40;;;;;;7374973;19;20400;-77
2022/01/18 09:40:03;;;;;;;19.57;12.00;;;11.70;56.50;;;;;;7381568;19;20409;-75
2022/01/18 09:42:36;;;;;;;19.70;13.50;;;11.90;57.40;;;;;;7374271;19;20409;-76
2022/01/18 09:45:17;;;;;;;21.47;13.30;;;10.80;57.70;;;;;;7369393;19;20422;-75
2022/01/18 09:47:54;;;;;;;18.77;12.00;;;10.40;59.60;;;;;;7368016;19;20474;-75
2022/01/18 09:50:29;;;;;;;19.17;12.57;;;10.60;59.50;;;;;;7361961;19;20400;-76
2022/01/18 09:53:00;;;;;;;19.07;11.60;;;9.80;61.60;;;;;;7373409;19;20409;-75
2022/01/18 09:55:32;;;;;;;18.63;11.43;;;8.90;64.10;;;;;;7368318;19;20417;-74
2022/01/18 09:58:07;;;;;;;22.30;12.70;;;8.90;64.70;;;;;;7373303;19;20409;-74
2022/01/18 10:00:43;;;;;;;20.97;12.17;;;8.20;66.60;;;;;;7363616;19;20513;-74
2022/01/18 10:03:30;;;;;;;26.23;13.60;;;8.50;68.30;;;;;;7376965;19;21046;-75
2022/01/18 10:06:00;;;;;;;18.97;11.87;;;7.90;68.20;;;;;;7373622;19;21079;-75
2022/01/18 10:08:33;;;;;;;21.77;10.50;;;7.90;68.80;;;;;;7364976;19;20442;-75
2022/01/18 10:11:05;;;;;;;20.27;12.15;;;7.70;69.10;;;;;;7373081;19;20150;-72
2022/01/18 10:13:38;;;;;;;18.17;10.43;;;7.30;69.80;;;;;;7409930;19;20143;-74
2022/01/18 10:16:13;;;;;;;21.95;10.73;;;7.20;70.60;;;;;;7409517;19;20134;-75
2022/01/18 10:18:47;;;;;;;16.42;9.15;;;7.10;70.70;;;;;;7410467;19;20127;-77
2022/01/18 10:21:28;;;;;;;18.20;11.10;;;7.10;71.30;;;;;;7415454;19;20179;-75
2022/01/18 10:24:15;;;;;;;17.02;10.00;;;7.40;71.20;;;;;;7416224;19;20163;-76
2022/01/18 10:26:50;;;;;;;19.63;10.32;;;7.50;69.90;;;;;;7408771;19;20143;-74
2022/01/18 10:29:22;;;;;;;17.95;10.02;;;7.60;69.80;;;;;;7413561;19;20226;-74
2022/01/18 10:32:02;;;;;;;20.17;11.10;;;7.60;68.80;;;;;;7408970;19;20132;-74
2022/01/18 10:35:04;;;;;;;20.10;10.60;;;7.60;69.30;;;;;;7408012;19;20147;-74
2022/01/18 10:37:33;;;;;;;21.20;9.80;;;7.60;69.30;;;;;;7396782;19;20234;-75
2022/01/18 10:40:04;;;;;;;24.80;10.93;;;7.50;68.80;;;;;;7412232;19;20186;-76
2022/01/18 10:42:42;;;;;;;16.60;9.20;;;7.40;69.80;;;;;;7406557;19;20138;-78
2022/01/18 10:45:23;;;;;;;19.98;11.18;;;7.40;69.40;;;;;;7410406;19;20223;-76
2022/01/18 10:48:04;;;;;;;19.55;10.00;;;7.40;70.50;;;;;;7406822;19;20146;-76
2022/01/18 10:50:37;;;;;;;22.65;11.15;;;7.40;70.50;;;;;;7405272;19;20139;-75
2022/01/18 10:53:17;;;;;;;21.90;11.40;;;7.50;70.10;;;;;;7407957;19;20163;-77
2022/01/18 10:55:51;;;;;;;18.95;10.18;;;7.40;70.10;;;;;;7412057;19;20147;-75
2022/01/18 10:58:26;;;;;;;17.60;9.25;;;7.70;69.10;;;;;;7409273;19;20205;-77
2022/01/18 11:01:18;;;;;;;18.15;9.55;;;7.90;68.10;;;;;;7409632;19;20139;-75
2022/01/18 11:04:14;;;;;;;17.90;10.25;;;7.80;67.40;;;;;;7410341;19;20152;-80
2022/01/18 11:06:58;;;;;;;17.65;9.32;;;8.00;67.50;;;;;;7409724;19;20132;-76
2022/01/18 11:09:30;;;;;;;18.15;9.10;;;8.60;66.30;;;;;;7410090;19;20148;-77
2022/01/18 11:12:00;;;;;;;18.65;8.70;;;8.80;64.20;;;;;;7410274;19;20144;-76
2022/01/18 11:14:31;;;;;;;17.77;8.70;;;8.80;63.60;;;;;;7411708;19;20147;-75
2022/01/18 11:17:02;;;;;;;13.70;8.13;;;8.90;63.50;;;;;;7410941;19;20416;-76
2022/01/18 11:19:37;;;;;;;18.67;8.30;;;8.90;63.30;;;;;;7412049;19;20400;-74
2022/01/18 11:22:10;;;;;;;16.57;8.30;;;8.70;64.40;;;;;;7407013;19;20415;-74
2022/01/18 11:24:41;;;;;;;15.30;8.80;;;;;;;;;;7402305;19;21111;-77
2022/01/18 11:27:18;;;;;;;13.47;8.73;;;;;;;;;;7397348;19;20423;-78
2022/01/18 11:29:50;;;;;;;10.53;7.07;;;;;;;;;;7388576;19;20411;-77
2022/01/18 11:32:21;;;;;;;12.20;7.47;;;;;;;;;;7391050;19;20410;-76
2022/01/18 11:35:09;;;;;;;16.10;8.13;;;;;;;;;;7366890;19;20399;-76
2022/01/18 11:37:42;;;;;;;14.43;7.37;;;;;;;;;;7375344;19;20376;-75
2022/01/18 11:40:15;;;;;;;13.20;7.60;;;8.70;64.30;;;;;;7370863;19;20708;-75
2022/01/18 11:42:50;;;;;;;12.60;6.90;;;9.00;60.00;;;;;;7363865;19;20420;-74
2022/01/18 11:45:37;;;;;;;12.80;6.80;;;8.70;61.70;;;;;;7370604;19;20378;-76
2022/01/18 11:48:11;;;;;;;10.93;6.70;;;8.50;62.80;;;;;;7374784;19;20898;-75
2022/01/18 11:50:44;;;;;;;10.93;7.40;;;8.80;63.50;;;;;;7383478;19;20750;-73
2022/01/18 11:53:54;;;;;;;15.37;8.10;;;9.30;61.40;;;;;;7382351;19;20447;-72
2022/01/18 11:56:35;;;;;;;14.33;7.87;;;;;;;;;;7387350;19;20472;-74
2022/01/18 11:59:15;;;;;;;11.03;7.20;;;;;;;;;;7384179;19;20451;-75
2022/01/18 12:01:54;;;;;;;12.00;6.10;;;;;;;;;;7378639;19;20416;-73
2022/01/18 12:04:40;;;;;;;14.00;9.30;;;;;;;;;;7385273;19;20412;-71
2022/01/18 12:07:09;;;;;;;15.90;5.83;;;;;;;;;;7387287;19;20384;-73
2022/01/18 12:09:43;;;;;;;10.33;6.73;;;;;;;;;;7382530;19;20416;-74
2022/01/18 12:12:39;;;;;;;8.40;5.43;;;;;;;;;;7388108;19;20422;-75
2022/01/18 12:15:29;;;;;;;6.67;5.30;;;;;;;;;;7388157;19;21114;-76
2022/01/18 12:18:03;;;;;;;9.20;6.43;;;;;;;;;;7388434;19;20423;-75
2022/01/18 12:20:47;;;;;;;10.77;7.07;;;11.40;58.10;;;;;;7391396;19;20843;-74
2022/01/18 12:23:20;;;;;;;12.63;7.90;;;;;;;;;;7396243;19;20412;-74
2022/01/18 12:26:01;;;;;;;10.53;7.17;;;11.80;51.70;;;;;;7401339;19;20406;-74
2022/01/18 12:29:20;;;;;;;11.53;6.27;;;;;;;;;;7393588;19;20408;-80
2022/01/18 12:34:45;;;;;;;9.17;6.00;;;;;;;;;;7371886;19;20434;-75
2022/01/18 12:37:30;;;;;;;11.23;5.67;;;;;;;;;;7376285;19;20404;-73
2022/01/18 12:40:05;;;;;;;9.70;5.23;;;;;;;;;;7374973;19;20392;-75
2022/01/18 12:45:20;;;;;;;12.53;5.53;;;;;;;;;;7380688;19;21007;-75
2022/01/18 12:47:52;;;;;;;11.67;6.20;;;;;;;;;;7376421;19;20400;-74
2022/01/18 12:50:26;;;;;;;7.60;4.90;;;;;;;;;;7377055;19;20440;-77
2022/01/18 12:52:57;;;;;;;10.27;6.13;;;;;;;;;;7378945;19;20391;-75
2022/01/18 12:55:31;;;;;;;9.27;5.43;;;;;;;;;;7381626;19;20400;-79
2022/01/18 12:58:01;;;;;;;12.13;5.17;;;;;;;;;;7374906;19;20503;-76
2022/01/18 13:00:31;;;;;;;8.50;5.30;;;;;;;;;;7372950;19;23054;-76
2022/01/18 13:03:01;;;;;;;11.30;5.70;;;;;;;;;;7376764;19;20405;-77
2022/01/18 13:05:45;;;;;;;9.70;4.20;;;;;;;;;;7371212;19;20410;-74
2022/01/18 13:08:17;;;;;;;8.25;4.80;;;10.60;56.10;;;;;;7373127;19;20755;-76
2022/01/18 13:10:48;;;;;;;7.27;3.10;;;8.70;59.80;;;;;;7377268;19;20491;-75
2022/01/18 13:13:20;;;;;;;8.70;3.30;;;8.70;59.80;;;;;;7378649;19;20420;-75
2022/01/18 13:22:56;;;;;;;6.73;3.30;;;8.50;60.00;;;;;;7376803;19;20408;-74
2022/01/18 13:27:21;;;;;;;5.57;3.38;;;;;;;;;;7367999;19;21073;-76
2022/01/18 13:29:53;;;;;;;8.02;3.90;;;;;;;;;;7371001;19;20154;-72
2022/01/18 13:32:27;;;;;;;5.45;3.13;;;;;;;;;;7376165;19;20165;-76
2022/01/18 13:34:59;;;;;;;9.52;4.03;;;;;;;;;;7374766;19;20638;-74
2022/01/18 13:37:34;;;;;;;7.30;3.80;;;;;;;;;;7378111;19;20135;-75
2022/01/18 13:40:06;;;;;;;11.02;3.65;;;;;;;;;;7369397;19;20145;-77
2022/01/18 13:42:39;;;;;;;7.67;4.40;;;;;;;;;;7377726;19;20138;-76
2022/01/18 13:45:10;;;;;;;14.27;5.60;;;;;;;;;;7378059;19;20864;-75
2022/01/18 13:47:40;;;;;;;5.90;3.35;;;;;;;;;;7377325;19;20430;-74
2022/01/18 13:50:11;;;;;;;9.13;3.75;;;;;;;;;;7374256;19;20626;-76
2022/01/18 13:52:43;;;;;;;5.47;3.60;;;;;;;;;;7372716;19;20606;-75
2022/01/18 13:55:13;;;;;;;4.90;2.90;;;;;;;;;;7375512;19;20404;-74
2022/01/18 13:57:56;;;;;;;7.00;3.85;;;;;;;;;;7375067;19;20210;-73
2022/01/18 14:00:29;;;;;;;4.75;3.33;;;8.60;60.40;;;;;;7371267;19;20187;-69
2022/01/18 14:02:59;;;;;;;6.93;3.13;;;8.00;61.90;;;;;;7367397;19;20147;-78
2022/01/18 14:05:28;;;;;;;4.93;2.80;;;7.90;61.90;;;;;;7377933;19;20144;-71
2022/01/18 14:08:11;;;;;;;3.85;3.45;;;8.10;62.00;;;;;;7376502;19;20136;-71
2022/01/18 14:10:40;;;;;;;6.07;3.20;;;7.90;61.90;;;;;;7370914;19;21030;-77
2022/01/18 14:13:10;;;;;;;7.82;2.92;;;7.80;62.40;;;;;;7374914;19;20143;-75
2022/01/18 14:15:41;;;;;;;9.88;4.03;;;7.70;62.50;;;;;;7372397;19;20163;-71
2022/01/18 14:18:14;;;;;;;5.18;3.15;;;7.70;63.50;;;;;;7372391;19;20135;-72
2022/01/18 14:20:44;;;;;;;9.55;3.83;;;7.80;63.30;;;;;;7372476;19;20654;-72
2022/01/18 14:23:23;;;;;;;2.70;2.03;;;7.80;62.70;;;;;;7371528;19;20143;-72
2022/01/18 14:25:53;;;;;;;5.78;2.50;;;7.60;61.20;;;;;;7375241;19;20479;-72
2022/01/18 14:28:29;;;;;;;5.13;2.25;;;7.50;60.60;;;;;;7393801;19;20155;-73
2022/01/18 14:31:09;;;;;;;2.90;2.38;;;7.50;60.60;;;;;;7410292;19;20127;-72
2022/01/18 14:33:51;;;;;;;3.03;1.90;;;8.10;60.40;;;;;;7412246;19;20135;-73
2022/01/18 14:36:20;;;;;;;5.88;2.55;;;7.40;60.60;;;;;;7412398;19;20136;-72
2022/01/18 14:39:07;;;;;;;3.47;2.60;;;7.50;59.60;;;;;;7410367;19;20252;-73
2022/01/18 14:41:37;;;;;;;4.00;2.10;;;7.50;59.30;;;;;;7394386;19;20136;-72